createdAt,value
2022-08-22T00:01:39.707Z,74.89
2022-08-22T00:03:03.716Z,69.32
2022-08-22T00:04:18.049Z,74.94
2022-08-22T00:18:22.803Z,74.63
2022-08-22T00:21:12.568Z,75.35
2022-08-22T00:23:43.559Z,74.87
2022-08-22T00:26:51.848Z,74.55
2022-08-22T00:29:34.890Z,75.35
2022-08-22T00:32:12.450Z,75.09
2022-08-22T00:34:59.307Z,75.71
2022-08-22T00:37:32.848Z,75.45
2022-08-22T00:40:21.184Z,75.29
2022-08-22T00:42:53.591Z,76.13
2022-08-22T00:46:11.741Z,75.68
2022-08-22T00:48:56.975Z,75.08
2022-08-22T00:51:48.943Z,76.09
2022-08-22T00:54:34.881Z,75.88
2022-08-22T00:57:37.856Z,75.81
2022-08-22T01:00:22.688Z,76.90
2022-08-22T01:02:59.387Z,77.54
2022-08-22T01:05:38.743Z,76.73
2022-08-22T01:08:22.138Z,77.71
2022-08-22T01:10:57.808Z,77.12
2022-08-22T01:13:46.863Z,77.68
2022-08-22T01:16:29.061Z,77.17
2022-08-22T01:19:19.664Z,76.41
2022-08-22T01:21:58.200Z,76.99
2022-08-22T01:25:16.449Z,76.54
2022-08-22T01:28:21.142Z,77.21
2022-08-22T01:31:14.335Z,77.20
2022-08-22T01:34:12.875Z,77.50
2022-08-22T01:37:09.901Z,77.82
2022-08-22T01:39:45.502Z,77.41
2022-08-22T01:42:34.667Z,77.13
2022-08-22T01:45:16.681Z,77.23
2022-08-22T01:47:50.263Z,77.65
2022-08-22T01:50:35.270Z,78.04
2022-08-22T01:53:11.251Z,78.67
2022-08-22T01:55:56.559Z,77.60
2022-08-22T01:58:32.119Z,78.35
2022-08-22T02:01:10.877Z,77.44
2022-08-22T02:03:41.904Z,77.45
2022-08-22T02:06:18.359Z,77.40
2022-08-22T02:09:02.626Z,78.06
2022-08-22T02:11:44.414Z,77.87
2022-08-22T02:14:28.270Z,77.44
2022-08-22T02:17:14.447Z,77.86
2022-08-22T02:19:50.420Z,78.12
2022-08-22T02:22:44.691Z,77.73
2022-08-22T02:25:17.553Z,78.07
2022-08-22T02:28:08.297Z,77.77
2022-08-22T02:30:52.810Z,77.67
2022-08-22T02:33:37.558Z,77.84
2022-08-22T02:36:16.601Z,77.25
2022-08-22T02:38:55.923Z,77.52
2022-08-22T02:41:43.953Z,77.39
2022-08-22T02:44:26.639Z,77.15
2022-08-22T02:47:09.047Z,77.06
2022-08-22T02:50:05.972Z,76.84
2022-08-22T02:53:08.304Z,77.72
2022-08-22T02:55:42.275Z,77.56
2022-08-22T02:58:19.453Z,77.48
2022-08-22T03:01:13.968Z,77.95
2022-08-22T03:03:42.928Z,78.89
2022-08-22T03:06:34.488Z,78.44
2022-08-22T03:09:20.316Z,79.27
2022-08-22T03:11:51.791Z,78.94
2022-08-22T03:14:27.542Z,78.84
2022-08-22T03:17:21.644Z,78.74
2022-08-22T03:20:04.519Z,78.60
2022-08-22T03:22:49.420Z,78.91
2022-08-22T03:25:36.970Z,78.24
2022-08-22T03:28:10.354Z,77.85
2022-08-22T03:31:07.198Z,77.86
2022-08-22T03:33:33.603Z,78.75
2022-08-22T03:36:22.004Z,78.22
2022-08-22T03:39:17.482Z,78.01
2022-08-22T03:42:08.847Z,77.61
2022-08-22T03:44:54.869Z,77.76
2022-08-22T03:47:40.212Z,77.84
2022-08-22T03:50:32.029Z,78.25
2022-08-22T03:53:19.270Z,78.48
2022-08-22T03:56:07.629Z,77.97
2022-08-22T03:58:47.880Z,79.14
2022-08-22T04:01:37.503Z,79.19
2022-08-22T04:04:19.034Z,78.86
2022-08-22T04:07:15.580Z,79.94
2022-08-22T04:10:35.706Z,79.67
2022-08-22T04:13:15.851Z,79.90
2022-08-22T04:15:52.660Z,79.53
2022-08-22T04:18:30.457Z,79.58
2022-08-22T04:21:13.633Z,78.91
2022-08-22T04:23:47.627Z,79.48
2022-08-22T04:26:37.306Z,80.00
2022-08-22T04:29:14.535Z,79.57
2022-08-22T04:31:47.440Z,79.68
2022-08-22T04:34:29.600Z,79.66
2022-08-22T04:37:02.742Z,79.35
2022-08-22T04:39:50.388Z,79.11
2022-08-22T04:42:34.325Z,80.03
2022-08-22T04:45:04.820Z,79.41
2022-08-22T04:47:36.691Z,79.58
2022-08-22T04:50:21.323Z,79.48
2022-08-22T04:53:00.230Z,79.81
2022-08-22T04:55:54.274Z,80.07
2022-08-22T04:58:45.861Z,80.02
2022-08-22T05:01:25.816Z,79.64
2022-08-22T05:04:03.305Z,80.05
2022-08-22T05:06:33.632Z,80.32
2022-08-22T05:09:05.587Z,80.34
2022-08-22T05:11:34.707Z,80.11
2022-08-22T05:14:13.623Z,80.07
2022-08-22T05:16:43.904Z,80.54
2022-08-22T05:19:27.069Z,79.41
2022-08-22T05:21:56.947Z,80.02
2022-08-22T05:24:31.716Z,80.32
2022-08-22T05:27:04.717Z,79.58
2022-08-22T05:29:32.560Z,80.51
2022-08-22T05:32:06.130Z,80.21
2022-08-22T05:34:38.736Z,80.81
2022-08-22T05:37:20.623Z,80.95
2022-08-22T05:39:56.059Z,80.19
2022-08-22T05:42:29.987Z,79.85
2022-08-22T05:44:57.193Z,80.22
2022-08-22T05:47:32.304Z,80.33
2022-08-22T05:50:10.808Z,79.53
2022-08-22T05:52:56.407Z,79.40
2022-08-22T05:55:29.021Z,79.44
2022-08-22T05:58:26.732Z,80.11
2022-08-22T06:01:05.091Z,80.19
2022-08-22T06:03:40.168Z,80.61
2022-08-22T06:06:16.065Z,79.92
2022-08-22T06:08:48.765Z,80.69
2022-08-22T06:11:33.611Z,80.05
2022-08-22T06:14:28.277Z,80.23
2022-08-22T06:17:27.864Z,79.91
2022-08-22T06:19:55.032Z,79.65
2022-08-22T06:22:27.631Z,79.81
2022-08-22T06:24:57.437Z,79.21
2022-08-22T06:27:27.695Z,79.14
2022-08-22T06:30:01.517Z,79.68
2022-08-22T06:32:58.764Z,79.54
2022-08-22T06:35:57.896Z,79.89
2022-08-22T06:38:41.577Z,79.04
2022-08-22T06:41:23.437Z,78.98
2022-08-22T06:43:52.776Z,78.91
2022-08-22T06:46:28.040Z,78.54
2022-08-22T06:49:20.746Z,77.72
2022-08-22T06:52:45.883Z,78.28
2022-08-22T06:58:45.762Z,77.02
2022-08-22T07:01:16.683Z,77.41
2022-08-22T07:04:44.536Z,75.93
2022-08-22T07:07:50.731Z,76.47
2022-08-22T07:10:30.416Z,75.61
2022-08-22T07:38:43.127Z,75.39
2022-08-22T09:10:16.509Z,65.85
2022-08-22T09:13:12.419Z,63.76
2022-08-22T09:20:15.396Z,62.80
2022-08-22T09:23:16.425Z,62.25
2022-08-22T09:25:55.492Z,61.15
2022-08-22T09:28:59.937Z,61.38
2022-08-22T09:31:47.806Z,61.77
2022-08-22T09:38:03.852Z,58.55
2022-08-22T09:40:55.000Z,56.74
2022-08-22T09:43:50.160Z,57.65
2022-08-22T09:46:36.745Z,56.66
2022-08-22T09:49:18.059Z,56.37
2022-08-22T09:52:33.158Z,56.85
2022-08-22T09:55:39.608Z,57.13
2022-08-22T09:58:29.084Z,57.64
2022-08-22T10:01:51.418Z,56.45
2022-08-22T10:04:48.216Z,56.53
2022-08-22T10:07:37.694Z,57.29
2022-08-22T10:10:12.684Z,55.67
2022-08-22T10:12:52.128Z,55.29
2022-08-22T10:15:31.599Z,55.60
2022-08-22T10:18:20.636Z,54.90
2022-08-22T10:21:06.804Z,53.82
2022-08-22T10:23:41.838Z,53.39
2022-08-22T10:26:35.265Z,54.25
2022-08-22T10:29:45.923Z,54.40
2022-08-22T10:32:30.850Z,54.97
2022-08-22T10:35:10.191Z,54.10
2022-08-22T10:37:55.278Z,52.43
2022-08-22T10:40:26.926Z,52.97
2022-08-22T10:43:13.742Z,53.74
2022-08-22T10:45:53.396Z,54.44
2022-08-22T10:48:39.489Z,53.02
2022-08-22T10:51:36.686Z,52.47
2022-08-22T10:54:19.980Z,50.56
2022-08-22T10:56:53.775Z,49.51
2022-08-22T10:59:47.856Z,50.84
2022-08-22T11:02:35.400Z,51.20
2022-08-22T11:05:37.656Z,51.98
2022-08-22T11:08:29.809Z,51.17
2022-08-22T11:11:19.846Z,49.92
2022-08-22T11:14:13.729Z,51.50
2022-08-22T11:17:28.960Z,50.95
2022-08-22T11:20:22.759Z,50.11
2022-08-22T11:22:58.451Z,49.85
2022-08-22T11:25:38.671Z,49.82
2022-08-22T11:28:14.368Z,49.00
2022-08-22T11:31:09.386Z,49.25
2022-08-22T11:33:46.332Z,48.32
2022-08-22T11:36:35.719Z,49.14
2022-08-22T11:39:27.705Z,48.85
2022-08-22T11:42:29.662Z,47.27
2022-08-22T11:45:00.992Z,47.44
2022-08-22T11:47:32.081Z,48.75
2022-08-22T11:50:13.513Z,46.68
2022-08-22T11:52:57.537Z,46.48
2022-08-22T11:55:33.223Z,46.08
2022-08-22T11:58:22.228Z,46.40
2022-08-22T12:01:17.504Z,45.54
2022-08-22T12:03:58.620Z,45.27
2022-08-22T12:06:38.391Z,45.92
2022-08-22T12:09:19.119Z,45.76
2022-08-22T12:11:57.945Z,44.72
2022-08-22T12:14:40.019Z,45.69
2022-08-22T12:17:18.998Z,45.61
2022-08-22T12:20:17.217Z,45.18
2022-08-22T12:23:06.188Z,46.28
2022-08-22T12:25:38.861Z,44.87
2022-08-22T12:28:46.749Z,45.51
2022-08-22T12:31:50.933Z,45.26
2022-08-22T12:34:27.211Z,43.88
2022-08-22T12:37:10.887Z,43.98
2022-08-22T12:39:50.752Z,41.12
2022-08-22T12:42:23.259Z,42.65
2022-08-22T12:45:12.073Z,44.25
2022-08-22T12:48:18.935Z,44.48
2022-08-22T12:51:17.219Z,44.54
2022-08-22T12:54:01.454Z,44.13
2022-08-22T12:57:04.628Z,43.12
2022-08-22T12:59:54.215Z,42.68
2022-08-22T13:02:29.003Z,43.01
2022-08-22T13:05:10.779Z,43.97
2022-08-22T13:07:41.158Z,43.65
2022-08-22T13:10:14.460Z,44.18
2022-08-22T13:12:53.916Z,45.38
2022-08-22T13:15:22.106Z,45.62
2022-08-22T13:17:51.816Z,43.16
2022-08-22T13:20:27.808Z,42.57
2022-08-22T13:22:56.468Z,42.46
2022-08-22T13:25:26.465Z,42.20
2022-08-22T13:27:59.160Z,42.87
2022-08-22T13:30:31.205Z,43.89
2022-08-22T13:33:09.766Z,43.98
2022-08-22T13:36:00.643Z,43.13
2022-08-22T13:38:32.450Z,41.83
2022-08-22T13:41:44.368Z,42.61
2022-08-22T13:44:17.261Z,41.43
2022-08-22T13:47:13.123Z,42.22
2022-08-22T13:49:37.425Z,42.33
2022-08-22T13:52:29.178Z,40.83
2022-08-22T13:55:12.493Z,41.32
2022-08-22T13:57:51.799Z,41.20
2022-08-22T14:00:28.760Z,40.46
2022-08-22T14:02:56.538Z,41.36
2022-08-22T14:05:31.072Z,41.47
2022-08-22T14:08:27.794Z,42.48
2022-08-22T14:11:03.469Z,41.73
2022-08-22T14:13:59.954Z,42.06
2022-08-22T14:16:33.823Z,42.15
2022-08-22T14:19:06.843Z,40.89
2022-08-22T14:21:45.415Z,41.40
2022-08-22T14:24:25.844Z,41.71
2022-08-22T14:27:09.070Z,41.36
2022-08-22T14:29:51.896Z,40.33
2022-08-22T14:32:22.644Z,41.41
2022-08-22T14:34:59.620Z,42.01
2022-08-22T14:37:39.036Z,39.78
2022-08-22T14:40:26.355Z,40.05
2022-08-22T14:43:22.771Z,41.18
2022-08-22T14:46:02.560Z,40.55
2022-08-22T14:48:39.357Z,40.42
2022-08-22T14:51:21.384Z,40.34
2022-08-22T14:53:50.067Z,40.11
2022-08-22T14:56:23.821Z,39.74
2022-08-22T14:58:59.988Z,39.01
2022-08-22T15:01:34.923Z,40.10
2022-08-22T15:04:11.183Z,39.70
2022-08-22T15:06:39.523Z,40.17
2022-08-22T15:09:50.376Z,39.76
2022-08-22T15:12:46.507Z,40.22
2022-08-22T15:15:27.528Z,39.97
2022-08-22T15:17:55.089Z,39.33
2022-08-22T15:20:28.531Z,39.78
2022-08-22T15:23:01.458Z,39.22
2022-08-22T15:25:41.364Z,38.69
2022-08-22T15:28:20.341Z,39.56
2022-08-22T15:31:05.415Z,38.95
2022-08-22T15:33:43.342Z,39.28
2022-08-22T15:36:16.288Z,39.46
2022-08-22T15:38:46.912Z,39.36
2022-08-22T15:41:36.589Z,39.93
2022-08-22T15:44:30.983Z,40.08
2022-08-22T15:47:01.460Z,39.50
2022-08-22T15:49:31.429Z,39.43
2022-08-22T15:52:01.467Z,39.04
2022-08-22T15:54:51.447Z,39.04
2022-08-22T15:57:35.002Z,39.86
2022-08-22T16:00:43.418Z,39.69
2022-08-22T16:03:30.900Z,40.17
2022-08-22T16:06:07.938Z,40.68
2022-08-22T16:08:51.307Z,39.53
2022-08-22T16:11:33.024Z,39.67
2022-08-22T16:14:18.624Z,40.32
2022-08-22T16:16:52.563Z,39.44
2022-08-22T16:19:27.759Z,39.92
2022-08-22T16:21:54.226Z,39.88
2022-08-22T16:24:21.781Z,40.10
2022-08-22T16:26:48.842Z,39.70
2022-08-22T16:29:41.093Z,41.09
2022-08-22T16:32:11.210Z,40.15
2022-08-22T16:34:37.609Z,40.84
2022-08-22T16:37:18.000Z,41.15
2022-08-22T16:40:03.477Z,41.20
2022-08-22T16:42:37.769Z,40.85
2022-08-22T16:45:05.311Z,41.63
2022-08-22T16:47:40.658Z,42.15
2022-08-22T16:50:16.165Z,42.31
2022-08-22T16:52:54.830Z,42.53
2022-08-22T16:55:30.363Z,42.62
2022-08-22T16:58:06.432Z,43.26
2022-08-22T17:00:36.180Z,43.43
2022-08-22T17:03:10.388Z,44.84
2022-08-22T17:05:51.297Z,45.29
2022-08-22T17:08:24.344Z,45.98
2022-08-22T17:11:25.418Z,45.81
2022-08-22T17:15:03.862Z,46.25
2022-08-22T17:17:52.141Z,47.69
2022-08-22T17:21:06.300Z,46.79
2022-08-22T17:24:10.410Z,47.48
2022-08-22T17:27:18.409Z,47.64
2022-08-22T17:30:09.274Z,46.97
2022-08-22T17:33:06.471Z,46.88
2022-08-22T17:36:04.000Z,47.00
2022-08-22T17:38:52.605Z,48.58
2022-08-22T17:41:43.956Z,48.90
2022-08-22T17:44:42.359Z,49.37
2022-08-22T17:47:19.855Z,49.52
2022-08-22T17:49:56.995Z,49.26
2022-08-22T17:52:49.136Z,49.90
2022-08-22T17:55:25.085Z,49.94
2022-08-22T17:58:00.601Z,50.42
2022-08-22T18:00:43.292Z,50.72
2022-08-22T18:03:22.207Z,50.05
2022-08-22T18:06:05.471Z,50.92
2022-08-22T18:11:50.975Z,51.62
2022-08-22T18:14:28.477Z,51.89
2022-08-22T18:16:55.942Z,51.30
2022-08-22T18:20:00.673Z,52.13
2022-08-22T18:22:37.137Z,52.36
2022-08-22T18:25:11.062Z,52.76
2022-08-22T18:27:56.565Z,52.58
2022-08-22T18:30:31.333Z,53.17
2022-08-22T18:33:28.444Z,52.75
2022-08-22T18:36:24.835Z,52.94
2022-08-22T18:39:03.564Z,53.16
2022-08-22T18:41:47.475Z,53.73
2022-08-22T18:44:26.101Z,54.47
2022-08-22T18:47:12.797Z,54.08
2022-08-22T18:49:44.561Z,54.69
2022-08-22T18:52:27.669Z,55.16
2022-08-22T18:55:25.116Z,54.98
2022-08-22T18:58:08.256Z,55.00
2022-08-22T19:00:56.063Z,55.42
2022-08-22T19:03:48.778Z,55.89
2022-08-22T19:06:46.633Z,56.09
2022-08-22T19:09:25.091Z,55.89
2022-08-22T19:12:23.163Z,56.42
2022-08-22T19:15:11.272Z,56.46
2022-08-22T19:17:59.431Z,57.18
2022-08-22T19:20:49.183Z,58.23
2022-08-22T19:23:33.804Z,58.08
2022-08-22T19:26:25.726Z,58.47
2022-08-22T19:28:55.112Z,58.90
2022-08-22T19:31:44.212Z,59.87
2022-08-22T19:34:25.891Z,60.59
2022-08-22T19:37:31.777Z,59.76
2022-08-22T19:40:05.222Z,61.01
2022-08-22T19:42:35.133Z,61.23
2022-08-22T19:45:16.366Z,61.38
2022-08-22T19:47:43.601Z,61.76
2022-08-22T19:50:28.475Z,61.69
2022-08-22T19:53:09.736Z,62.27
2022-08-22T19:55:36.767Z,63.02
2022-08-22T19:58:12.882Z,62.90
2022-08-22T20:00:53.468Z,63.17
2022-08-22T20:03:20.269Z,63.43
2022-08-22T20:06:00.102Z,63.12
2022-08-22T20:08:43.853Z,62.81
2022-08-22T20:11:25.447Z,62.50
2022-08-22T20:14:30.089Z,63.07
2022-08-22T20:16:59.854Z,63.45
2022-08-22T20:20:23.995Z,63.10
2022-08-22T20:23:02.626Z,62.95
2022-08-22T20:25:42.930Z,63.21
2022-08-22T20:28:36.873Z,63.30
2022-08-22T20:31:10.333Z,62.82
2022-08-22T20:33:43.843Z,62.10
2022-08-22T20:36:28.117Z,62.53
2022-08-22T20:39:05.675Z,63.10
2022-08-22T20:41:43.363Z,62.47
2022-08-22T20:44:23.162Z,62.57
2022-08-22T20:46:55.221Z,62.48
2022-08-22T20:49:25.149Z,62.51
2022-08-22T20:51:57.889Z,62.59
2022-08-22T20:54:33.447Z,62.78
2022-08-22T20:57:03.585Z,62.96
2022-08-22T20:59:35.663Z,62.99
2022-08-22T21:02:19.067Z,63.20
2022-08-22T21:04:52.063Z,63.18
2022-08-22T21:07:33.363Z,63.24
2022-08-22T21:10:37.224Z,63.17
2022-08-22T21:13:11.325Z,63.25
2022-08-22T21:15:49.949Z,63.55
2022-08-22T21:18:40.158Z,63.22
2022-08-22T21:21:12.766Z,63.97
2022-08-22T21:23:47.274Z,64.10
2022-08-22T21:26:27.629Z,64.77
2022-08-22T21:29:00.725Z,64.76
2022-08-22T21:31:31.588Z,64.78
2022-08-22T21:33:59.016Z,64.45
2022-08-22T21:36:29.975Z,64.42
2022-08-22T21:39:01.726Z,64.99
2022-08-22T21:41:43.887Z,64.75
2022-08-22T21:44:17.554Z,65.20
2022-08-22T21:46:44.523Z,65.15
2022-08-22T21:49:22.434Z,64.83
2022-08-22T21:51:50.297Z,65.30
2022-08-22T21:54:19.489Z,65.38
2022-08-22T21:56:46.096Z,65.49
2022-08-22T21:59:21.737Z,65.40
2022-08-22T22:01:52.660Z,65.41
2022-08-22T22:04:22.167Z,65.50
2022-08-22T22:06:58.528Z,65.80
2022-08-22T22:09:24.939Z,66.44
2022-08-22T22:11:51.348Z,66.51
2022-08-22T22:14:17.735Z,66.81
2022-08-22T22:16:44.241Z,67.16
2022-08-22T22:19:10.746Z,67.50
2022-08-22T22:21:37.314Z,68.64
2022-08-22T22:24:04.139Z,68.77
2022-08-22T22:26:31.143Z,68.89
2022-08-22T22:28:59.068Z,68.66
2022-08-22T22:31:25.956Z,68.98
2022-08-22T22:33:52.437Z,69.58
2022-08-22T22:36:26.180Z,69.38
2022-08-22T22:38:53.215Z,69.06
2022-08-22T22:41:23.291Z,69.63
2022-08-22T22:43:49.772Z,69.62
2022-08-22T22:46:16.177Z,69.34
2022-08-22T22:48:42.632Z,70.36
2022-08-22T22:51:10.958Z,69.99
2022-08-22T22:53:42.640Z,70.16
2022-08-22T22:56:12.647Z,69.82
2022-08-22T22:58:40.003Z,69.82
2022-08-22T23:01:20.147Z,70.02
2022-08-22T23:03:46.888Z,70.63
2022-08-22T23:06:17.164Z,70.53
2022-08-22T23:08:45.491Z,70.48
2022-08-22T23:11:17.520Z,70.21
2022-08-22T23:13:44.703Z,69.88
2022-08-22T23:16:14.914Z,69.90
2022-08-22T23:18:41.931Z,69.73
2022-08-22T23:21:19.401Z,69.91
2022-08-22T23:23:46.815Z,69.59
2022-08-22T23:26:14.303Z,69.04
2022-08-22T23:28:41.367Z,68.98
2022-08-22T23:31:35.480Z,69.07
2022-08-22T23:34:05.098Z,69.34
2022-08-22T23:36:32.232Z,69.63
2022-08-22T23:38:59.961Z,70.35
2022-08-22T23:41:26.742Z,69.93
2022-08-22T23:43:55.261Z,70.34
2022-08-22T23:49:40.514Z,69.74
2022-08-22T23:52:37.948Z,70.27
2022-08-22T23:56:23.816Z,70.33
